Time;durP1;ratioP1;P1;durP2;ratioP2;P2;SDS_P1;SDS_P2;PMS_P1;PMS_P2;Temp;Humidity;BMP_temperature;BMP_pressure;BME280_temperature;BME280_humidity;BME280_pressure;Samples;Min_cycle;Max_cycle;Signal;HPM_P1;HPM_P2
2022/07/03 00:00:11;;;;;;;1.73;0.20;;;20.50;99.90;;;;;;5008736;28;20042;-48
2022/07/03 00:02:36;;;;;;;2.83;0.38;;;20.50;99.90;;;;;;4993348;28;20049;-45
2022/07/03 00:05:02;;;;;;;4.07;0.30;;;20.50;99.90;;;;;;4997142;28;20441;-45
2022/07/03 00:07:28;;;;;;;0.90;0.30;;;20.50;99.90;;;;;;4998819;28;20066;-46
2022/07/03 00:09:53;;;;;;;2.47;0.30;;;20.50;99.90;;;;;;5001308;28;20044;-45
2022/07/03 00:12:19;;;;;;;2.45;0.30;;;20.50;99.90;;;;;;5002738;28;20464;-48
2022/07/03 00:14:45;;;;;;;1.25;0.28;;;20.40;99.90;;;;;;5001018;28;20420;-46
2022/07/03 00:17:11;;;;;;;2.25;0.20;;;20.40;99.90;;;;;;4998042;28;20053;-48
2022/07/03 00:19:36;;;;;;;1.75;0.30;;;20.40;99.90;;;;;;4996767;28;20080;-46
2022/07/03 00:22:04;;;;;;;1.52;0.30;;;20.40;99.90;;;;;;4997385;28;20076;-46
2022/07/03 00:24:42;;;;;;;0.80;0.30;;;20.30;99.90;;;;;;5008386;28;20307;-45
2022/07/03 00:27:09;;;;;;;2.13;0.35;;;20.30;99.90;;;;;;4997471;28;20384;-46
2022/07/03 00:29:42;;;;;;;1.25;0.30;;;20.30;99.90;;;;;;4998125;28;20105;-46
2022/07/03 00:32:10;;;;;;;2.05;0.20;;;20.30;99.90;;;;;;5008452;28;20045;-46
2022/07/03 00:34:37;;;;;;;1.27;0.30;;;20.30;99.90;;;;;;4999729;28;20650;-46
2022/07/03 00:37:08;;;;;;;1.90;0.20;;;20.20;99.90;;;;;;4991944;28;20411;-45
2022/07/03 00:39:40;;;;;;;2.63;0.50;;;20.20;99.90;;;;;;5010823;28;20482;-46
2022/07/03 00:42:07;;;;;;;1.98;0.20;;;20.20;99.90;;;;;;5008072;28;20095;-46
2022/07/03 00:44:42;;;;;;;1.83;0.30;;;20.10;99.90;;;;;;4999712;28;20038;-45
2022/07/03 00:47:08;;;;;;;1.80;0.30;;;20.10;99.90;;;;;;4999307;28;20041;-46
2022/07/03 00:49:35;;;;;;;1.45;0.30;;;20.00;99.90;;;;;;5000725;28;20099;-45
2022/07/03 00:52:05;;;;;;;1.27;0.30;;;20.00;99.90;;;;;;4992291;28;20057;-47
2022/07/03 00:54:34;;;;;;;2.92;0.38;;;19.90;99.90;;;;;;4980569;28;20058;-46
2022/07/03 00:57:01;;;;;;;1.05;0.20;;;19.90;99.90;;;;;;4999030;28;20101;-47
2022/07/03 00:59:27;;;;;;;1.42;0.20;;;19.90;99.90;;;;;;4998516;28;20547;-45
2022/07/03 01:02:03;;;;;;;1.02;0.20;;;19.80;99.90;;;;;;5001125;28;20041;-47
2022/07/03 01:04:51;;;;;;;1.08;0.20;;;19.80;99.90;;;;;;5007306;28;20567;-47
2022/07/03 01:07:37;;;;;;;1.38;0.35;;;19.80;99.90;;;;;;4996817;28;20408;-46
2022/07/03 01:10:09;;;;;;;2.05;0.30;;;19.70;99.90;;;;;;4996267;28;20741;-46
2022/07/03 01:12:50;;;;;;;1.65;0.30;;;19.70;99.90;;;;;;4995620;28;20269;-47
2022/07/03 01:15:40;;;;;;;0.80;0.30;;;19.60;99.90;;;;;;5007215;28;20108;-45
2022/07/03 01:18:32;;;;;;;1.25;0.30;;;19.60;99.90;;;;;;5000939;28;20275;-46
2022/07/03 01:21:13;;;;;;;1.67;0.30;;;19.50;99.90;;;;;;5008009;28;20029;-45
2022/07/03 01:23:51;;;;;;;0.65;0.20;;;19.50;99.90;;;;;;4996732;28;20463;-43
2022/07/03 01:26:18;;;;;;;1.25;0.30;;;19.40;99.90;;;;;;4997914;28;20108;-46
2022/07/03 01:28:46;;;;;;;1.27;0.30;;;19.40;99.90;;;;;;5010597;28;20075;-45
2022/07/03 01:31:18;;;;;;;1.55;0.20;;;19.30;99.90;;;;;;4997821;28;20130;-45
2022/07/03 01:33:46;;;;;;;2.33;0.30;;;19.30;99.90;;;;;;5006566;28;20025;-47
2022/07/03 01:36:15;;;;;;;0.90;0.30;;;19.20;99.90;;;;;;5007411;28;20191;-45
2022/07/03 01:38:42;;;;;;;2.45;0.35;;;19.20;99.90;;;;;;5007123;28;20129;-44
2022/07/03 01:41:10;;;;;;;1.20;0.20;;;19.20;99.90;;;;;;5007241;28;20718;-44
2022/07/03 01:44:02;;;;;;;1.73;0.20;;;19.10;99.90;;;;;;5008782;28;20056;-44
2022/07/03 01:46:30;;;;;;;2.55;0.30;;;19.10;99.90;;;;;;5013067;28;20045;-43
2022/07/03 01:48:58;;;;;;;2.05;0.47;;;19.10;99.90;;;;;;5012576;28;20068;-45
2022/07/03 01:51:24;;;;;;;1.35;0.30;;;19.00;99.90;;;;;;5017746;28;20190;-43
2022/07/03 01:53:52;;;;;;;1.10;0.30;;;19.00;99.90;;;;;;5016865;28;20054;-46
2022/07/03 01:56:20;;;;;;;2.38;0.50;;;19.00;99.90;;;;;;5013334;28;20689;-42
2022/07/03 01:58:46;;;;;;;1.33;0.40;;;18.90;99.90;;;;;;5024273;28;21178;-43
2022/07/03 02:01:22;;;;;;;1.95;0.57;;;18.80;99.90;;;;;;5014028;28;20045;-43
2022/07/03 02:04:11;;;;;;;1.38;0.65;;;18.80;99.90;;;;;;5013294;28;20045;-44
2022/07/03 02:06:44;;;;;;;1.77;0.30;;;18.80;99.90;;;;;;5014726;28;20099;-44
2022/07/03 02:09:10;;;;;;;;;;;18.70;99.90;;;;;;5017537;28;20061;-44
2022/07/03 02:11:39;;;;;;;0.90;0.40;;;18.60;99.90;;;;;;5014683;28;20402;-47
2022/07/03 02:14:17;;;;;;;1.77;0.47;;;18.60;99.90;;;;;;5015092;28;20046;-43
2022/07/03 02:17:15;;;;;;;1.83;0.30;;;18.60;99.90;;;;;;5012791;28;20045;-43
2022/07/03 02:19:54;;;;;;;1.80;0.40;;;18.50;99.90;;;;;;5012939;28;20148;-45
2022/07/03 02:22:24;;;;;;;1.63;0.60;;;18.40;99.90;;;;;;5016177;28;20042;-47
2022/07/03 02:24:50;;;;;;;1.55;0.40;;;18.30;99.90;;;;;;5017895;28;20117;-43
2022/07/03 02:27:25;;;;;;;1.60;0.50;;;18.30;99.90;;;;;;5012309;28;20132;-44
2022/07/03 02:30:04;;;;;;;1.63;0.50;;;18.30;99.90;;;;;;5015227;28;20753;-43
2022/07/03 02:32:36;;;;;;;2.10;0.30;;;18.20;99.90;;;;;;5014493;28;20060;-44
2022/07/03 02:35:06;;;;;;;3.55;0.70;;;18.20;99.90;;;;;;5013020;28;20056;-44
2022/07/03 02:37:45;;;;;;;2.35;0.52;;;18.20;99.90;;;;;;5016188;28;20041;-44
2022/07/03 02:40:39;;;;;;;2.03;0.50;;;18.10;99.90;;;;;;5013447;28;20049;-44
2022/07/03 02:43:39;;;;;;;3.42;0.70;;;18.10;99.90;;;;;;5017368;28;20049;-44
2022/07/03 02:46:48;;;;;;;2.60;0.70;;;18.00;99.90;;;;;;5008115;28;20095;-45
2022/07/03 02:49:42;;;;;;;2.35;0.40;;;18.00;99.90;;;;;;5020502;28;20038;-42
2022/07/03 02:52:44;;;;;;;2.83;0.65;;;17.90;99.90;;;;;;5022285;28;20048;-45
2022/07/03 02:55:31;;;;;;;2.13;0.70;;;17.90;99.90;;;;;;5014513;28;20065;-42
2022/07/03 02:58:32;;;;;;;3.13;1.00;;;17.90;99.90;;;;;;5028033;28;20148;-44
2022/07/03 03:01:11;;;;;;;1.20;0.60;;;17.90;99.90;;;;;;5010117;28;20462;-42
2022/07/03 03:03:40;;;;;;;1.10;0.40;;;17.80;99.90;;;;;;5018899;28;20100;-43
2022/07/03 03:06:20;;;;;;;2.75;0.80;;;17.70;99.90;;;;;;5018175;28;20046;-42
2022/07/03 03:08:52;;;;;;;2.47;0.88;;;17.70;99.90;;;;;;5019097;28;20065;-44
2022/07/03 03:11:42;;;;;;;2.00;1.00;;;17.70;99.90;;;;;;5019334;28;20132;-44
2022/07/03 03:14:12;;;;;;;2.22;0.73;;;17.70;99.90;;;;;;5029161;28;20555;-43
2022/07/03 03:16:46;;;;;;;3.25;1.08;;;17.60;99.90;;;;;;5028987;28;20041;-42
2022/07/03 03:19:12;;;;;;;2.35;1.00;;;17.60;99.90;;;;;;5029968;28;20034;-43
2022/07/03 03:21:53;;;;;;;1.55;0.68;;;17.60;99.90;;;;;;5017312;28;20038;-43
2022/07/03 03:24:19;;;;;;;2.15;0.98;;;17.50;99.90;;;;;;5020005;28;20080;-45
2022/07/03 03:26:45;;;;;;;1.55;0.50;;;17.50;99.90;;;;;;5017334;28;20049;-45
2022/07/03 03:29:11;;;;;;;3.08;0.70;;;17.50;99.90;;;;;;5013253;28;20045;-42
2022/07/03 03:31:36;;;;;;;1.30;0.50;;;17.50;99.90;;;;;;5019842;28;20376;-43
2022/07/03 03:34:03;;;;;;;1.65;0.68;;;17.50;99.90;;;;;;5027643;28;20060;-43
2022/07/03 03:36:29;;;;;;;2.40;0.40;;;17.50;99.90;;;;;;5018610;28;20452;-42
2022/07/03 03:38:55;;;;;;;1.75;0.60;;;17.40;99.90;;;;;;5025855;28;20128;-42
2022/07/03 03:41:21;;;;;;;1.55;0.50;;;17.40;99.90;;;;;;5018836;28;20069;-43
2022/07/03 03:43:47;;;;;;;2.20;0.60;;;17.40;99.90;;;;;;5012983;28;20045;-44
2022/07/03 03:46:14;;;;;;;2.05;0.60;;;17.40;99.90;;;;;;5018436;28;20399;-44
2022/07/03 03:48:41;;;;;;;1.75;0.70;;;17.40;99.90;;;;;;5017779;28;20042;-43
2022/07/03 03:51:09;;;;;;;3.95;0.82;;;17.40;99.90;;;;;;5019029;28;20041;-44
2022/07/03 03:53:35;;;;;;;2.53;0.90;;;17.40;99.90;;;;;;5016186;28;20104;-44
2022/07/03 03:56:10;;;;;;;2.40;0.80;;;17.40;99.90;;;;;;5016899;28;20068;-42
2022/07/03 03:58:37;;;;;;;1.88;0.60;;;17.40;99.90;;;;;;5018663;28;20045;-42
2022/07/03 04:01:05;;;;;;;2.45;0.80;;;17.40;99.90;;;;;;5019589;28;20560;-43
2022/07/03 04:03:33;;;;;;;2.60;1.05;;;17.40;99.90;;;;;;5016046;28;20080;-43
2022/07/03 04:05:59;;;;;;;2.05;0.60;;;17.40;99.90;;;;;;5028367;28;20041;-44
2022/07/03 04:08:25;;;;;;;2.30;0.82;;;17.40;99.90;;;;;;5026278;28;20144;-43
2022/07/03 04:10:51;;;;;;;2.80;0.88;;;17.40;99.90;;;;;;5017809;28;20045;-43
2022/07/03 04:13:19;;;;;;;2.05;0.60;;;17.40;99.90;;;;;;5017242;28;20688;-43
2022/07/03 04:15:45;;;;;;;3.28;1.58;;;17.30;99.90;;;;;;5021469;28;20088;-42
2022/07/03 04:18:11;;;;;;;3.15;1.30;;;17.30;99.90;;;;;;5028006;28;20050;-47
2022/07/03 04:20:37;;;;;;;2.50;1.60;;;17.30;99.90;;;;;;5014427;28;20368;-45
2022/07/03 04:23:03;;;;;;;2.15;1.00;;;17.30;99.90;;;;;;5015579;28;20049;-43
2022/07/03 04:25:29;;;;;;;2.17;0.68;;;17.30;99.90;;;;;;5018857;28;20120;-43
2022/07/03 04:27:55;;;;;;;3.83;1.33;;;17.30;99.90;;;;;;5015163;28;20042;-43
2022/07/03 04:30:21;;;;;;;1.42;0.80;;;17.30;99.90;;;;;;5014106;28;20049;-43
2022/07/03 04:32:47;;;;;;;2.25;0.80;;;17.20;99.90;;;;;;5008596;28;20625;-42
2022/07/03 04:35:13;;;;;;;1.77;0.60;;;17.20;99.90;;;;;;5015940;28;20106;-44
2022/07/03 04:37:39;;;;;;;1.50;0.90;;;17.20;99.90;;;;;;5015987;28;20038;-43
2022/07/03 04:40:06;;;;;;;1.40;0.70;;;17.20;99.90;;;;;;5014051;28;20408;-43
2022/07/03 04:42:31;;;;;;;2.17;0.50;;;17.10;99.90;;;;;;5017747;28;20414;-45
2022/07/03 04:44:57;;;;;;;2.70;0.68;;;17.10;99.90;;;;;;5008970;28;20044;-43
2022/07/03 04:47:23;;;;;;;2.25;1.00;;;17.10;99.90;;;;;;5018499;28;20052;-42
2022/07/03 04:49:48;;;;;;;2.60;0.55;;;17.10;99.90;;;;;;5018959;28;20052;-44
2022/07/03 04:52:14;;;;;;;1.92;0.60;;;17.10;99.90;;;;;;5026468;28;20396;-46
2022/07/03 04:54:40;;;;;;;2.55;0.70;;;17.10;99.90;;;;;;5024898;28;20263;-43
2022/07/03 04:57:06;;;;;;;2.67;0.60;;;17.10;99.90;;;;;;4998136;28;20104;-44
2022/07/03 04:59:32;;;;;;;1.73;0.60;;;17.10;99.90;;;;;;5025771;28;20506;-45
2022/07/03 05:01:57;;;;;;;1.98;0.60;;;17.20;99.90;;;;;;5019052;28;20121;-44
2022/07/03 05:04:23;;;;;;;1.63;0.40;;;17.20;99.90;;;;;;5016390;28;20041;-43
2022/07/03 05:06:49;;;;;;;1.90;0.50;;;17.20;99.90;;;;;;5009458;28;20037;-44
2022/07/03 05:09:14;;;;;;;2.70;0.82;;;17.20;99.90;;;;;;5025557;28;20073;-42
2022/07/03 05:11:41;;;;;;;1.08;0.50;;;17.30;99.90;;;;;;5017959;28;20140;-43
2022/07/03 05:14:07;;;;;;;0.77;0.40;;;17.30;99.90;;;;;;5015145;28;20384;-43
2022/07/03 05:16:33;;;;;;;1.85;0.60;;;17.30;99.90;;;;;;5015339;28;20161;-42
2022/07/03 05:18:59;;;;;;;2.53;0.90;;;17.30;99.90;;;;;;5027142;28;20041;-47
2022/07/03 05:21:25;;;;;;;1.42;0.60;;;17.40;99.90;;;;;;5015804;28;20144;-45
2022/07/03 05:23:50;;;;;;;1.77;0.50;;;17.50;99.90;;;;;;4996995;28;20136;-47
2022/07/03 05:26:17;;;;;;;2.78;0.75;;;17.50;99.90;;;;;;5013745;28;20100;-45
2022/07/03 05:28:43;;;;;;;2.13;0.60;;;17.60;99.90;;;;;;5014822;28;20500;-43
2022/07/03 05:31:08;;;;;;;2.47;0.70;;;17.70;99.90;;;;;;5025479;28;20069;-45
2022/07/03 05:33:34;;;;;;;2.40;0.40;;;17.80;99.90;;;;;;5009340;28;20045;-43
2022/07/03 05:36:00;;;;;;;1.20;0.52;;;17.80;99.90;;;;;;5014529;28;20046;-45
2022/07/03 05:41:10;;;;;;;1.40;0.40;;;17.90;99.90;;;;;;5013543;28;20508;-44
2022/07/03 05:43:36;;;;;;;1.58;0.40;;;18.20;99.90;;;;;;5027413;28;20049;-45
2022/07/03 05:46:03;;;;;;;0.95;0.35;;;18.70;99.90;;;;;;5014198;28;20056;-47
2022/07/03 05:48:29;;;;;;;2.30;0.30;;;19.10;99.90;;;;;;5024823;28;20472;-44
2022/07/03 05:50:55;;;;;;;2.20;0.43;;;19.40;99.90;;;;;;5013936;28;20099;-47
2022/07/03 05:53:21;;;;;;;1.10;0.30;;;19.50;99.90;;;;;;5025334;28;20597;-44
2022/07/03 05:55:47;;;;;;;0.90;0.35;;;19.50;99.90;;;;;;4996334;28;20518;-48
2022/07/03 05:58:12;;;;;;;1.42;0.30;;;19.60;99.90;;;;;;5004705;28;20054;-46
2022/07/03 06:00:38;;;;;;;2.08;0.60;;;19.50;99.90;;;;;;4993794;28;20491;-46
2022/07/03 06:03:04;;;;;;;1.45;0.40;;;19.50;99.90;;;;;;5005631;28;20429;-46
2022/07/03 06:05:30;;;;;;;1.95;0.40;;;19.50;99.90;;;;;;4995882;28;20112;-44
2022/07/03 06:07:55;;;;;;;1.67;0.30;;;19.50;99.90;;;;;;4996253;28;20055;-45
2022/07/03 06:10:21;;;;;;;1.00;0.30;;;19.50;99.90;;;;;;4995248;28;20038;-44
2022/07/03 06:12:47;;;;;;;1.10;0.30;;;19.50;99.90;;;;;;4992390;28;20045;-45
2022/07/03 06:15:12;;;;;;;1.55;0.40;;;19.50;99.90;;;;;;5007723;28;20045;-45
2022/07/03 06:17:38;;;;;;;1.80;0.30;;;19.50;99.90;;;;;;4996608;28;20121;-44
2022/07/03 06:20:05;;;;;;;0.90;0.30;;;19.50;99.90;;;;;;4967945;28;20152;-45
2022/07/03 06:22:31;;;;;;;1.70;0.30;;;19.50;99.90;;;;;;4998358;28;20038;-45
2022/07/03 06:24:57;;;;;;;1.35;0.40;;;19.60;99.90;;;;;;4998426;28;20034;-45
2022/07/03 06:27:23;;;;;;;1.45;0.30;;;19.60;99.90;;;;;;5011099;28;20480;-44
2022/07/03 06:29:51;;;;;;;1.70;0.30;;;19.60;99.90;;;;;;4999456;28;20049;-48
2022/07/03 06:32:17;;;;;;;1.88;0.30;;;19.60;99.90;;;;;;4999028;28;20042;-44
2022/07/03 06:34:43;;;;;;;1.92;0.40;;;19.70;99.90;;;;;;4999850;28;20050;-45
2022/07/03 06:37:09;;;;;;;1.98;0.38;;;19.70;99.90;;;;;;4998115;28;20046;-44
2022/07/03 06:39:35;;;;;;;1.48;0.30;;;19.80;99.90;;;;;;5003600;28;20097;-47
2022/07/03 06:42:01;;;;;;;1.10;0.30;;;19.80;99.90;;;;;;4997650;28;20358;-44
2022/07/03 06:44:27;;;;;;;1.33;0.30;;;19.90;99.90;;;;;;5009473;28;20476;-44
2022/07/03 06:46:53;;;;;;;1.23;0.22;;;19.90;99.90;;;;;;4998377;28;20076;-48
2022/07/03 06:49:19;;;;;;;1.45;0.40;;;19.90;99.90;;;;;;5000553;28;20420;-44
2022/07/03 06:51:44;;;;;;;1.88;0.57;;;19.90;99.90;;;;;;4997098;28;20034;-45
2022/07/03 06:54:10;;;;;;;1.35;0.30;;;20.10;99.90;;;;;;5000557;28;20056;-44
2022/07/03 06:56:36;;;;;;;3.67;0.38;;;20.10;99.90;;;;;;5000078;28;20089;-44
2022/07/03 06:59:01;;;;;;;3.28;0.35;;;20.10;99.90;;;;;;4999018;28;20049;-45
2022/07/03 07:01:27;;;;;;;1.27;0.50;;;20.20;99.90;;;;;;4998392;28;20209;-44
2022/07/03 07:03:53;;;;;;;1.63;0.32;;;20.30;99.90;;;;;;4998912;28;20042;-44
2022/07/03 07:06:18;;;;;;;1.67;0.28;;;20.30;99.90;;;;;;5000382;28;20618;-45
2022/07/03 07:08:44;;;;;;;1.15;0.20;;;20.40;99.90;;;;;;5011017;28;20401;-45
2022/07/03 07:11:10;;;;;;;1.15;0.40;;;20.50;99.90;;;;;;4993916;28;20049;-45
2022/07/03 07:13:35;;;;;;;1.27;0.30;;;20.60;99.90;;;;;;4986397;28;20435;-44
2022/07/03 07:16:01;;;;;;;1.38;0.30;;;20.60;99.90;;;;;;5000033;28;20252;-45
2022/07/03 07:18:27;;;;;;;1.63;0.30;;;20.70;99.90;;;;;;4999406;28;20214;-45
2022/07/03 07:20:53;;;;;;;2.25;0.30;;;20.80;99.90;;;;;;5001641;28;20041;-46
2022/07/03 07:23:18;;;;;;;1.65;0.40;;;20.90;99.90;;;;;;5011574;28;20044;-46
2022/07/03 07:25:44;;;;;;;1.48;0.28;;;21.00;99.90;;;;;;5000305;28;20049;-44
2022/07/03 07:28:10;;;;;;;0.93;0.20;;;21.10;99.90;;;;;;4997237;28;20049;-45
2022/07/03 07:30:36;;;;;;;1.98;0.20;;;21.20;99.90;;;;;;5008246;28;20091;-45
2022/07/03 07:33:02;;;;;;;2.00;0.30;;;21.40;99.90;;;;;;4998497;28;20121;-45
2022/07/03 07:35:27;;;;;;;1.38;0.20;;;21.40;99.90;;;;;;5008849;28;20038;-44
2022/07/03 07:37:53;;;;;;;1.80;0.32;;;21.50;99.90;;;;;;5000260;28;20199;-46
2022/07/03 07:40:19;;;;;;;1.25;0.20;;;21.60;99.90;;;;;;4998911;28;20239;-45
2022/07/03 07:42:44;;;;;;;0.65;0.10;;;21.70;99.90;;;;;;4994507;28;20053;-44
2022/07/03 07:45:11;;;;;;;1.17;0.20;;;21.80;99.90;;;;;;5000247;28;20216;-45
2022/07/03 07:47:36;;;;;;;1.00;0.20;;;21.90;99.90;;;;;;4980432;28;20234;-43
2022/07/03 07:50:03;;;;;;;0.73;0.20;;;21.90;99.90;;;;;;4999814;28;20096;-45
2022/07/03 07:52:29;;;;;;;1.20;0.15;;;22.00;99.90;;;;;;4998757;28;20054;-44
2022/07/03 07:54:55;;;;;;;1.55;0.20;;;22.00;99.90;;;;;;5011273;28;20458;-43
2022/07/03 07:57:20;;;;;;;0.95;0.10;;;22.10;99.90;;;;;;4999481;28;20081;-47
2022/07/03 07:59:46;;;;;;;3.30;0.30;;;22.20;99.90;;;;;;4992448;28;20453;-46
2022/07/03 08:07:40;;;;;;;8.07;0.40;;;22.40;99.90;;;;;;5000016;28;20394;-43
2022/07/03 08:10:06;;;;;;;7.85;1.90;;;22.40;99.90;;;;;;5008451;28;20037;-43
2022/07/03 08:12:32;;;;;;;4.65;0.60;;;22.40;99.90;;;;;;4998336;28;20120;-44
2022/07/03 08:14:57;;;;;;;14.57;5.43;;;22.30;99.90;;;;;;4997387;28;20665;-45
2022/07/03 08:17:23;;;;;;;21.15;6.82;;;22.20;99.90;;;;;;4992559;28;20086;-45
2022/07/03 08:19:49;;;;;;;22.65;8.15;;;22.10;99.90;;;;;;5000020;28;20069;-43
2022/07/03 08:22:14;;;;;;;15.30;3.65;;;22.10;99.90;;;;;;4962821;28;20576;-43
2022/07/03 08:24:40;;;;;;;23.55;7.40;;;22.10;99.90;;;;;;4993338;28;20432;-43
2022/07/03 08:27:05;;;;;;;15.25;4.07;;;22.10;99.90;;;;;;4999499;28;20381;-44
2022/07/03 08:29:31;;;;;;;3.17;0.40;;;22.10;99.90;;;;;;4997606;28;20044;-43
2022/07/03 08:31:57;;;;;;;2.75;0.30;;;22.20;99.90;;;;;;4999947;28;20141;-44
2022/07/03 08:34:23;;;;;;;1.92;0.30;;;22.20;99.90;;;;;;4998789;28;20042;-44
2022/07/03 08:36:49;;;;;;;2.70;0.22;;;22.30;99.90;;;;;;4998981;28;20419;-43
2022/07/03 08:39:15;;;;;;;2.58;0.30;;;22.20;99.90;;;;;;5007242;28;20046;-44
2022/07/03 08:41:41;;;;;;;1.95;0.20;;;22.30;99.90;;;;;;4990784;28;20455;-42
2022/07/03 08:44:12;;;;;;;2.50;0.30;;;22.30;99.90;;;;;;4998713;28;20141;-43
2022/07/03 08:46:39;;;;;;;2.03;0.20;;;22.30;99.90;;;;;;4997990;28;20521;-43
2022/07/03 08:49:06;;;;;;;1.58;0.20;;;22.30;99.90;;;;;;4996247;28;20054;-44
2022/07/03 08:51:32;;;;;;;4.03;0.30;;;22.30;99.90;;;;;;4992746;28;20416;-45
2022/07/03 08:54:01;;;;;;;3.03;0.30;;;22.30;99.90;;;;;;4995485;28;20547;-43
2022/07/03 08:56:27;;;;;;;2.08;0.20;;;22.30;99.90;;;;;;4984876;28;20049;-44
2022/07/03 08:58:57;;;;;;;3.35;0.30;;;22.40;99.90;;;;;;5014360;28;20357;-44
2022/07/03 09:01:23;;;;;;;3.53;0.40;;;22.50;99.90;;;;;;5008583;28;20054;-44
2022/07/03 09:03:51;;;;;;;2.10;0.30;;;22.60;99.90;;;;;;4992386;28;20450;-44
2022/07/03 09:06:33;;;;;;;2.20;0.20;;;22.60;99.90;;;;;;5003105;28;20125;-44
2022/07/03 09:09:20;;;;;;;1.65;0.20;;;22.70;99.90;;;;;;5010774;28;20543;-44
2022/07/03 09:11:47;;;;;;;2.53;0.20;;;22.70;99.90;;;;;;4995159;28;20064;-45
2022/07/03 09:14:13;;;;;;;2.28;0.30;;;22.80;99.90;;;;;;4997762;28;20056;-47
2022/07/03 09:16:38;;;;;;;1.27;0.20;;;22.90;99.90;;;;;;5019722;28;20044;-46
2022/07/03 09:19:04;;;;;;;2.28;0.20;;;22.90;99.90;;;;;;5007710;28;20219;-43
2022/07/03 09:21:37;;;;;;;3.08;0.20;;;23.00;99.90;;;;;;4994950;28;20819;-46
2022/07/03 09:24:05;;;;;;;2.42;0.30;;;23.00;99.90;;;;;;5015540;28;20051;-44
2022/07/03 09:26:31;;;;;;;1.17;0.20;;;23.10;99.90;;;;;;5000501;28;20447;-44
2022/07/03 09:28:57;;;;;;;2.53;0.20;;;23.10;99.90;;;;;;5016287;28;20041;-44
2022/07/03 09:31:25;;;;;;;1.55;0.20;;;23.20;99.90;;;;;;5015785;28;20049;-44
2022/07/03 09:33:50;;;;;;;1.60;0.20;;;23.30;99.90;;;;;;5020145;28;20045;-44
2022/07/03 09:36:16;;;;;;;1.95;0.20;;;23.30;99.90;;;;;;5025100;28;20044;-44
2022/07/03 09:38:45;;;;;;;2.15;0.32;;;23.40;99.90;;;;;;5009509;28;20057;-43
2022/07/03 09:41:11;;;;;;;1.45;0.25;;;23.50;99.90;;;;;;5025934;28;20046;-43
2022/07/03 09:43:42;;;;;;;1.05;0.20;;;23.50;99.70;;;;;;5012895;28;20552;-41
2022/07/03 09:46:07;;;;;;;5.85;0.30;;;23.50;99.90;;;;;;4998725;28;20045;-44
2022/07/03 09:48:37;;;;;;;2.10;0.20;;;23.50;99.90;;;;;;5011929;28;20541;-43
2022/07/03 09:51:35;;;;;;;5.60;0.28;;;23.60;99.90;;;;;;5012050;28;20068;-44
2022/07/03 09:54:02;;;;;;;8.27;0.30;;;23.70;99.90;;;;;;4981365;28;20555;-41
2022/07/03 09:56:33;;;;;;;2.80;0.75;;;23.70;99.90;;;;;;5009832;28;20045;-46
2022/07/03 09:59:12;;;;;;;3.22;0.50;;;23.90;98.50;;;;;;5008850;28;20053;-44
2022/07/03 10:01:45;;;;;;;2.38;0.30;;;23.90;98.50;;;;;;4997742;28;20037;-44
2022/07/03 10:04:18;;;;;;;1.55;0.20;;;24.00;98.40;;;;;;5011625;28;20675;-43
2022/07/03 10:06:56;;;;;;;2.95;0.20;;;24.00;97.20;;;;;;4997627;28;20107;-43
2022/07/03 10:09:33;;;;;;;3.50;0.30;;;24.10;95.50;;;;;;4997997;28;20037;-45
2022/07/03 10:12:02;;;;;;;9.48;0.40;;;24.10;94.80;;;;;;5010955;28;20048;-42
2022/07/03 10:14:31;;;;;;;6.20;0.65;;;24.20;95.40;;;;;;5007499;28;20191;-44
2022/07/03 10:16:59;;;;;;;2.33;0.30;;;24.30;95.20;;;;;;5009782;28;20510;-46
2022/07/03 10:19:30;;;;;;;1.50;0.20;;;24.30;94.20;;;;;;5008855;28;20045;-43
2022/07/03 10:22:02;;;;;;;2.15;0.20;;;24.40;93.40;;;;;;4992490;28;20043;-43
2022/07/03 10:24:29;;;;;;;1.33;0.20;;;24.40;92.40;;;;;;5010233;28;20046;-44
2022/07/03 10:26:57;;;;;;;1.55;0.20;;;24.40;92.30;;;;;;5005153;28;20092;-45
2022/07/03 10:29:25;;;;;;;1.73;0.10;;;24.50;93.00;;;;;;4997147;28;20060;-43
2022/07/03 10:31:51;;;;;;;1.33;0.20;;;24.50;91.90;;;;;;5004944;28;20459;-43
2022/07/03 10:34:20;;;;;;;0.85;0.10;;;24.60;90.70;;;;;;5001388;28;20044;-43
2022/07/03 10:36:50;;;;;;;2.53;0.20;;;24.70;90.80;;;;;;5018025;28;20350;-43
2022/07/03 10:39:25;;;;;;;2.08;0.20;;;24.70;91.50;;;;;;5005752;28;20319;-42
2022/07/03 10:45:06;;;;;;;1.35;0.10;;;24.90;89.20;;;;;;5007830;28;20574;-43
2022/07/03 10:47:48;;;;;;;1.42;0.10;;;25.00;84.60;;;;;;5008713;28;20532;-44
2022/07/03 10:50:18;;;;;;;1.75;0.20;;;25.10;86.30;;;;;;4995212;28;20042;-43
2022/07/03 10:52:44;;;;;;;0.88;0.10;;;25.20;83.00;;;;;;4995380;28;20062;-44
2022/07/03 10:55:13;;;;;;;1.83;0.10;;;25.20;79.90;;;;;;4997758;28;20041;-47
2022/07/03 10:57:40;;;;;;;0.70;0.10;;;25.30;81.70;;;;;;4997219;28;20458;-44
2022/07/03 11:00:08;;;;;;;1.90;0.10;;;25.30;79.10;;;;;;4997535;28;20714;-43
2022/07/03 11:02:52;;;;;;;0.73;0.10;;;25.40;75.00;;;;;;4997961;28;20041;-43
2022/07/03 11:05:21;;;;;;;1.25;0.10;;;25.40;72.70;;;;;;5008489;28;20046;-46
2022/07/03 11:07:50;;;;;;;1.52;0.10;;;25.40;72.40;;;;;;4997446;28;20038;-44
2022/07/03 11:10:16;;;;;;;2.03;0.10;;;25.50;72.70;;;;;;5003968;28;20710;-43
2022/07/03 11:13:04;;;;;;;1.70;0.13;;;25.60;72.80;;;;;;5002561;28;20056;-44
2022/07/03 11:15:34;;;;;;;1.55;0.10;;;25.70;73.90;;;;;;5002931;28;20101;-43
2022/07/03 11:18:13;;;;;;;3.45;0.20;;;25.90;76.40;;;;;;5003419;28;20115;-45
2022/07/03 11:20:42;;;;;;;1.25;0.20;;;26.00;76.20;;;;;;4999943;28;20145;-46
2022/07/03 11:23:13;;;;;;;1.80;0.20;;;26.10;73.90;;;;;;5002049;28;20953;-43
2022/07/03 11:25:40;;;;;;;1.77;0.20;;;26.10;73.10;;;;;;5009671;28;20630;-44
2022/07/03 11:28:06;;;;;;;1.05;0.20;;;26.10;72.00;;;;;;5013545;28;20077;-46
2022/07/03 11:30:32;;;;;;;2.70;0.20;;;26.20;73.00;;;;;;4999331;28;20123;-43
2022/07/03 11:33:00;;;;;;;1.42;0.20;;;26.20;75.10;;;;;;5000624;28;20676;-43
2022/07/03 11:35:48;;;;;;;0.82;0.10;;;26.20;75.40;;;;;;5003534;28;20083;-43
2022/07/03 11:38:23;;;;;;;0.63;0.10;;;26.40;76.80;;;;;;5001877;28;20048;-44
2022/07/03 11:40:51;;;;;;;0.68;0.10;;;26.40;73.90;;;;;;5003394;28;20046;-44
2022/07/03 11:43:17;;;;;;;1.30;0.10;;;26.40;72.70;;;;;;5001897;28;20552;-45
2022/07/03 11:45:45;;;;;;;1.17;0.10;;;26.40;71.90;;;;;;5001317;28;20037;-43
2022/07/03 11:48:18;;;;;;;1.08;0.20;;;26.50;71.50;;;;;;5000546;28;20045;-44
2022/07/03 11:50:46;;;;;;;1.27;0.20;;;26.50;70.00;;;;;;4996864;28;20045;-43
2022/07/03 11:53:15;;;;;;;0.75;0.10;;;26.50;68.50;;;;;;5001170;28;20586;-45
2022/07/03 11:55:48;;;;;;;1.27;0.10;;;26.60;67.00;;;;;;4999613;28;20046;-45
2022/07/03 11:58:14;;;;;;;1.65;0.10;;;26.60;66.00;;;;;;5002729;28;20507;-44
2022/07/03 12:00:40;;;;;;;0.75;0.10;;;26.50;65.20;;;;;;5004445;28;20057;-43
2022/07/03 12:03:06;;;;;;;2.45;0.30;;;26.50;66.50;;;;;;5010627;28;20037;-43
2022/07/03 12:05:32;;;;;;;6.40;0.73;;;26.40;72.70;;;;;;5011723;28;20045;-42
2022/07/03 12:08:05;;;;;;;6.88;0.70;;;26.40;82.00;;;;;;5003024;28;20120;-45
2022/07/03 12:10:41;;;;;;;7.43;0.80;;;26.30;87.50;;;;;;5011846;28;20809;-45
2022/07/03 12:13:23;;;;;;;8.95;0.98;;;26.10;91.40;;;;;;5011901;28;20088;-43
2022/07/03 12:15:49;;;;;;;7.40;0.70;;;26.00;93.80;;;;;;5007888;28;20045;-45
2022/07/03 12:18:15;;;;;;;4.85;0.70;;;25.80;95.10;;;;;;5012072;28;20034;-47
2022/07/03 12:20:42;;;;;;;7.20;0.80;;;25.60;95.10;;;;;;5008266;28;20156;-43
2022/07/03 12:23:08;;;;;;;7.53;0.93;;;25.50;96.70;;;;;;5006116;28;20076;-44
2022/07/03 12:25:39;;;;;;;7.80;1.02;;;25.30;98.60;;;;;;5018920;28;20053;-42
2022/07/03 12:28:06;;;;;;;8.77;0.93;;;25.20;99.90;;;;;;5006679;28;20042;-42
2022/07/03 12:30:32;;;;;;;7.80;0.70;;;25.10;99.90;;;;;;5007742;28;20478;-43
2022/07/03 12:32:58;;;;;;;6.97;1.05;;;25.00;99.90;;;;;;5007436;28;20049;-43
2022/07/03 12:35:25;;;;;;;22.35;1.52;;;25.00;99.90;;;;;;5008415;28;20041;-44
2022/07/03 12:37:51;;;;;;;8.55;1.30;;;25.00;99.90;;;;;;5007904;28;20553;-46
2022/07/03 12:40:18;;;;;;;6.47;0.60;;;24.90;99.90;;;;;;5014824;28;20038;-39
2022/07/03 12:42:49;;;;;;;6.13;0.95;;;24.90;99.90;;;;;;5002442;28;20049;-45
2022/07/03 12:45:16;;;;;;;4.82;0.70;;;24.90;99.90;;;;;;5000540;28;20092;-45
2022/07/03 12:47:44;;;;;;;5.75;0.50;;;24.90;99.90;;;;;;4999332;28;20053;-44
2022/07/03 12:50:10;;;;;;;5.22;0.50;;;24.90;99.90;;;;;;5000949;28;20116;-45
2022/07/03 12:52:53;;;;;;;7.47;0.80;;;24.80;99.90;;;;;;4993879;28;20046;-42
2022/07/03 12:55:27;;;;;;;6.38;0.60;;;24.70;99.90;;;;;;5004051;28;20057;-42
2022/07/03 13:00:56;;;;;;;4.28;0.70;;;24.50;99.90;;;;;;5010915;28;20507;-43
2022/07/03 13:03:29;;;;;;;5.38;0.50;;;24.30;99.90;;;;;;5010583;28;20045;-44
2022/07/03 13:05:55;;;;;;;10.10;0.57;;;24.10;99.90;;;;;;5011572;28;20045;-43
2022/07/03 13:08:21;;;;;;;5.80;0.40;;;24.10;99.90;;;;;;4999684;28;21100;-42
2022/07/03 13:11:00;;;;;;;4.53;0.40;;;24.00;99.90;;;;;;5000173;28;20155;-42
2022/07/03 13:13:26;;;;;;;4.35;0.50;;;24.00;99.90;;;;;;5003075;28;20149;-43